Time;durP1;ratioP1;P1;durP2;ratioP2;P2;SDS_P1;SDS_P2;PMS_P1;PMS_P2;Temp;Humidity;BMP_temperature;BMP_pressure;BME280_temperature;BME280_humidity;BME280_pressure;Samples;Min_cycle;Max_cycle;Signal;HPM_P1;HPM_P2
2022/10/23 00:00:35;;;;;;;19.50;14.32;;;10.80;99.90;;;;;;4826747;29;90378;-28
2022/10/23 00:03:00;;;;;;;17.00;13.13;;;10.80;99.90;;;;;;4825993;29;88735;-29
2022/10/23 00:05:27;;;;;;;14.82;12.23;;;10.90;99.90;;;;;;4826369;29;90012;-29
2022/10/23 00:07:57;;;;;;;20.85;13.68;;;10.90;99.90;;;;;;4825932;29;90199;-26
2022/10/23 00:10:24;;;;;;;15.35;12.18;;;10.90;99.90;;;;;;4825885;29;90275;-31
2022/10/23 00:12:50;;;;;;;14.88;12.60;;;10.80;99.90;;;;;;4826967;29;89757;-31
2022/10/23 00:15:18;;;;;;;14.90;11.00;;;10.80;99.90;;;;;;4825994;29;91033;-29
2022/10/23 00:17:44;;;;;;;15.60;12.50;;;10.80;99.90;;;;;;4826350;29;87925;-29
2022/10/23 00:20:11;;;;;;;16.52;14.23;;;10.80;99.90;;;;;;4826442;29;90272;-28
2022/10/23 00:22:36;;;;;;;17.88;14.32;;;10.80;99.90;;;;;;4826058;29;89035;-29
2022/10/23 00:25:04;;;;;;;21.73;15.68;;;10.70;99.90;;;;;;4826195;29;88391;-28
2022/10/23 00:27:30;;;;;;;19.23;14.77;;;10.70;99.90;;;;;;4827109;29;89614;-27
2022/10/23 00:29:55;;;;;;;17.55;15.88;;;10.70;99.90;;;;;;4826617;29;91287;-28
2022/10/23 00:32:21;;;;;;;18.05;16.08;;;10.70;99.90;;;;;;4825740;29;90294;-32
2022/10/23 00:34:46;;;;;;;19.92;15.77;;;10.70;99.90;;;;;;4825989;29;90338;-30
2022/10/23 00:37:12;;;;;;;22.15;16.25;;;10.60;99.90;;;;;;4812012;29;89674;-31
2022/10/23 00:39:37;;;;;;;30.05;19.65;;;10.60;99.90;;;;;;4808365;29;89442;-28
2022/10/23 00:42:03;;;;;;;23.05;16.00;;;10.60;99.90;;;;;;4806899;29;89690;-28
2022/10/23 00:44:29;;;;;;;25.67;15.25;;;10.60;99.90;;;;;;4807742;29;89587;-28
2022/10/23 00:46:55;;;;;;;21.42;14.57;;;10.60;99.90;;;;;;4807180;29;89366;-28
2022/10/23 00:49:21;;;;;;;17.80;15.88;;;10.60;99.90;;;;;;4791148;29;90422;-28
2022/10/23 00:52:00;;;;;;;19.80;15.45;;;10.60;99.90;;;;;;4807101;29;89730;-28
2022/10/23 00:54:31;;;;;;;28.85;17.30;;;10.60;99.90;;;;;;4807212;29;89288;-27
2022/10/23 00:57:00;;;;;;;23.27;17.10;;;10.60;99.90;;;;;;4806825;29;90096;-31
2022/10/23 00:59:26;;;;;;;;;;;10.60;99.90;;;;;;4808595;29;90179;-28
2022/10/23 01:01:52;;;;;;;22.33;18.02;;;10.60;99.90;;;;;;4808829;29;89901;-30
2022/10/23 01:04:18;;;;;;;25.20;17.23;;;10.60;99.90;;;;;;4807522;29;89587;-32
2022/10/23 01:07:18;;;;;;;23.33;17.35;;;10.60;99.90;;;;;;4807344;29;89662;-28
2022/10/23 01:09:53;;;;;;;21.38;17.92;;;10.60;99.90;;;;;;4798451;29;90238;-29
2022/10/23 01:12:39;;;;;;;14.52;13.23;;;10.70;99.90;;;;;;4806636;29;89808;-30
2022/10/23 01:15:12;;;;;;;18.10;15.88;;;10.70;99.90;;;;;;4790645;29;89541;-30
2022/10/23 01:17:53;;;;;;;15.55;13.30;;;10.70;99.90;;;;;;4807130;29;88305;-29
2022/10/23 01:20:25;;;;;;;26.15;17.50;;;10.70;99.90;;;;;;4807396;29;90559;-29
2022/10/23 01:23:12;;;;;;;17.13;14.93;;;10.70;99.90;;;;;;4805894;29;91147;-32
2022/10/23 01:26:06;;;;;;;18.02;14.73;;;10.70;99.90;;;;;;4807716;29;90668;-28
2022/10/23 01:28:49;;;;;;;21.05;18.20;;;10.70;99.90;;;;;;4807212;29;88823;-30
2022/10/23 01:31:20;;;;;;;14.85;13.18;;;10.80;99.90;;;;;;4807315;29;90214;-32
2022/10/23 01:33:51;;;;;;;16.33;14.20;;;10.70;99.90;;;;;;4806599;29;89790;-32
2022/10/23 01:36:21;;;;;;;24.25;16.38;;;10.70;99.90;;;;;;4806756;29;89610;-29
2022/10/23 01:38:56;;;;;;;23.42;16.00;;;10.70;99.90;;;;;;4806545;29;89757;-29
2022/10/23 01:41:53;;;;;;;17.42;13.63;;;10.70;99.90;;;;;;4790065;29;90343;-31
2022/10/23 01:44:28;;;;;;;15.00;12.40;;;10.70;99.90;;;;;;4807157;29;90168;-30
2022/10/23 01:46:55;;;;;;;16.65;13.45;;;10.70;99.90;;;;;;4793734;29;89193;-29
2022/10/23 01:49:22;;;;;;;15.70;13.57;;;10.60;99.90;;;;;;4806627;29;90068;-32
2022/10/23 01:51:55;;;;;;;14.40;12.93;;;10.60;99.90;;;;;;4806426;29;90609;-31
2022/10/23 01:54:25;;;;;;;18.67;13.23;;;10.60;99.90;;;;;;4806285;29;89753;-29
2022/10/23 01:56:51;;;;;;;14.27;12.02;;;10.60;99.90;;;;;;4806003;29;89252;-31
2022/10/23 01:59:29;;;;;;;14.35;12.88;;;10.60;99.90;;;;;;4807706;29;89289;-30
2022/10/23 02:01:57;;;;;;;16.50;14.50;;;10.50;99.90;;;;;;4806496;29;90461;-28
2022/10/23 02:04:31;;;;;;;19.55;13.10;;;10.50;99.90;;;;;;4806644;29;89750;-28
2022/10/23 02:06:57;;;;;;;14.82;13.10;;;10.50;99.90;;;;;;4805174;29;89207;-30
2022/10/23 02:09:23;;;;;;;21.80;15.63;;;10.50;99.90;;;;;;4807207;29;88086;-29
2022/10/23 02:11:57;;;;;;;13.85;12.23;;;10.50;99.90;;;;;;4805616;29;91101;-28
2022/10/23 02:14:35;;;;;;;12.35;10.60;;;10.40;99.90;;;;;;4806551;29;90426;-31
2022/10/23 02:17:11;;;;;;;14.88;12.13;;;10.40;99.90;;;;;;4806159;29;90493;-29
2022/10/23 02:19:52;;;;;;;21.80;13.85;;;10.40;99.90;;;;;;4806255;29;89103;-27
2022/10/23 02:22:27;;;;;;;19.08;13.82;;;10.30;99.90;;;;;;4806563;29;91567;-30
2022/10/23 02:25:17;;;;;;;21.63;15.18;;;10.30;99.90;;;;;;4805881;29;89194;-27
2022/10/23 02:27:53;;;;;;;19.83;12.73;;;10.30;99.90;;;;;;4805695;29;89789;-28
2022/10/23 02:30:19;;;;;;;20.27;13.82;;;10.30;99.90;;;;;;4806787;29;88358;-29
2022/10/23 02:32:49;;;;;;;16.35;13.73;;;10.30;99.90;;;;;;4805987;29;90952;-30
2022/10/23 02:35:16;;;;;;;24.50;16.55;;;10.30;99.90;;;;;;4805657;29;89749;-29
2022/10/23 02:37:42;;;;;;;15.97;14.03;;;10.20;99.90;;;;;;4805130;29;89600;-30
2022/10/23 02:40:09;;;;;;;19.17;14.52;;;10.20;99.90;;;;;;4805576;29;88131;-31
2022/10/23 02:42:56;;;;;;;20.50;12.73;;;10.20;99.90;;;;;;4806426;29;90550;-29
2022/10/23 02:45:38;;;;;;;20.35;15.52;;;10.20;99.90;;;;;;4806276;29;89830;-28
2022/10/23 02:48:17;;;;;;;19.73;14.80;;;10.20;99.90;;;;;;4806014;29;89147;-30
2022/10/23 02:51:08;;;;;;;14.93;13.13;;;10.20;99.90;;;;;;4806082;29;89069;-30
2022/10/23 02:53:39;;;;;;;21.70;13.85;;;10.20;99.90;;;;;;4805893;29;90251;-31
2022/10/23 02:56:19;;;;;;;25.17;15.88;;;10.20;99.90;;;;;;4805549;29;89794;-30
2022/10/23 02:58:55;;;;;;;18.63;14.07;;;10.10;99.90;;;;;;4805601;29;91895;-30
2022/10/23 03:01:27;;;;;;;15.38;13.55;;;10.10;99.90;;;;;;4805705;29;89381;-32
2022/10/23 03:03:56;;;;;;;18.45;16.30;;;10.10;99.90;;;;;;4792874;29;89819;-28
2022/10/23 03:06:23;;;;;;;18.33;15.52;;;10.10;99.90;;;;;;4804870;29;91063;-29
2022/10/23 03:08:52;;;;;;;16.10;14.45;;;10.10;99.90;;;;;;4805943;29;90576;-31
2022/10/23 03:11:18;;;;;;;16.23;14.50;;;10.10;99.90;;;;;;4806682;29;88879;-32
2022/10/23 03:13:44;;;;;;;18.02;14.63;;;10.10;99.90;;;;;;4805285;29;90422;-31
2022/10/23 03:16:10;;;;;;;21.52;17.65;;;10.10;99.90;;;;;;4805324;29;89433;-29
2022/10/23 03:18:35;;;;;;;18.45;14.85;;;10.10;99.90;;;;;;4791776;29;89581;-31
2022/10/23 03:21:01;;;;;;;16.30;14.70;;;10.10;99.90;;;;;;4808697;29;89969;-28
2022/10/23 03:23:27;;;;;;;24.23;15.63;;;10.10;99.90;;;;;;4809054;29;90192;-29
2022/10/23 03:25:53;;;;;;;18.30;16.33;;;10.10;99.90;;;;;;4808084;29;90333;-30
2022/10/23 03:28:18;;;;;;;19.08;14.40;;;10.10;99.90;;;;;;4808627;29;88753;-32
2022/10/23 03:30:44;;;;;;;16.70;14.98;;;10.10;99.90;;;;;;4808334;29;89832;-28
2022/10/23 03:33:10;;;;;;;22.65;15.30;;;10.10;99.90;;;;;;4808621;29;91155;-27
2022/10/23 03:35:35;;;;;;;20.13;16.10;;;10.20;99.90;;;;;;4808730;29;90732;-31
2022/10/23 03:38:01;;;;;;;21.67;14.68;;;10.20;99.90;;;;;;4807956;29;89499;-29
2022/10/23 03:40:26;;;;;;;17.80;14.48;;;10.20;99.90;;;;;;4809145;29;87612;-28
2022/10/23 03:42:52;;;;;;;17.52;14.93;;;10.20;99.90;;;;;;4808418;29;90510;-29
2022/10/23 03:45:18;;;;;;;22.35;13.98;;;10.20;99.90;;;;;;4808674;29;89736;-32
2022/10/23 03:47:44;;;;;;;16.83;14.38;;;10.30;99.90;;;;;;4808712;29;89868;-29
2022/10/23 03:50:12;;;;;;;18.38;13.90;;;10.20;99.90;;;;;;4808255;29;88599;-28
2022/10/23 03:52:38;;;;;;;14.68;13.15;;;10.20;99.90;;;;;;4807795;29;90591;-32
2022/10/23 03:55:04;;;;;;;16.88;13.68;;;10.20;99.90;;;;;;4807779;29;91398;-33
2022/10/23 03:57:30;;;;;;;17.65;15.80;;;10.30;99.90;;;;;;4808789;29;91759;-29
2022/10/23 03:59:55;;;;;;;18.65;14.80;;;10.30;99.90;;;;;;4808392;29;89389;-32
2022/10/23 04:02:21;;;;;;;17.30;15.05;;;10.30;99.90;;;;;;4807931;29;88941;-30
2022/10/23 04:04:47;;;;;;;24.52;17.20;;;10.30;99.90;;;;;;4808013;29;89481;-32
2022/10/23 04:07:12;;;;;;;15.70;13.13;;;10.30;99.90;;;;;;4808155;29;89590;-29
2022/10/23 04:09:38;;;;;;;18.80;14.70;;;10.20;99.90;;;;;;4808278;29;89440;-28
2022/10/23 04:12:04;;;;;;;14.82;13.23;;;10.20;99.90;;;;;;4808313;29;90677;-29
2022/10/23 04:14:29;;;;;;;26.98;16.17;;;10.20;99.90;;;;;;4808176;29;90516;-30
2022/10/23 04:16:55;;;;;;;18.90;14.48;;;10.20;99.90;;;;;;4807515;29;89210;-31
2022/10/23 04:19:21;;;;;;;17.77;13.93;;;10.20;99.90;;;;;;4813320;29;90221;-29
2022/10/23 04:21:46;;;;;;;16.98;14.32;;;10.20;99.90;;;;;;4812844;29;91033;-30
2022/10/23 04:24:12;;;;;;;22.50;16.48;;;10.20;99.90;;;;;;4807849;29;90177;-32
2022/10/23 04:26:38;;;;;;;21.33;16.98;;;10.20;99.90;;;;;;4807870;29;89108;-30
2022/10/23 04:29:04;;;;;;;20.40;17.60;;;10.20;99.90;;;;;;4807354;29;88617;-29
2022/10/23 04:31:29;;;;;;;28.52;17.85;;;10.20;99.90;;;;;;4807682;29;90015;-27
2022/10/23 04:33:55;;;;;;;15.10;13.55;;;10.20;99.90;;;;;;4851769;23;90445;-31
2022/10/23 04:36:20;;;;;;;15.23;13.63;;;10.20;99.90;;;;;;4826741;29;88456;-30
2022/10/23 04:38:46;;;;;;;19.95;13.82;;;10.10;99.90;;;;;;4826047;29;88443;-28
2022/10/23 04:41:12;;;;;;;16.77;15.00;;;10.20;99.90;;;;;;4826127;29;89335;-30
2022/10/23 04:43:38;;;;;;;18.25;15.30;;;10.10;99.90;;;;;;4825702;29;91263;-30
2022/10/23 04:46:04;;;;;;;20.92;16.38;;;10.10;99.90;;;;;;4825988;29;90827;-29
2022/10/23 04:48:30;;;;;;;25.13;14.48;;;10.10;99.90;;;;;;4809505;29;89302;-29
2022/10/23 04:50:57;;;;;;;20.73;15.57;;;10.10;99.90;;;;;;4825809;29;90161;-29
2022/10/23 04:53:23;;;;;;;17.38;14.98;;;10.10;99.90;;;;;;4826156;29;89748;-32
2022/10/23 04:55:53;;;;;;;16.08;14.45;;;10.10;99.90;;;;;;4808901;29;90941;-29
2022/10/23 04:58:20;;;;;;;19.27;15.20;;;10.00;99.90;;;;;;4826644;29;89410;-29
2022/10/23 05:00:46;;;;;;;15.25;13.65;;;10.00;99.90;;;;;;4825718;29;90227;-30
2022/10/23 05:03:12;;;;;;;16.80;14.98;;;10.00;99.90;;;;;;4808895;29;89768;-31
2022/10/23 05:05:38;;;;;;;15.07;13.60;;;10.10;99.90;;;;;;4826569;29;89430;-28
2022/10/23 05:08:04;;;;;;;17.58;14.07;;;10.10;99.90;;;;;;4825161;29;89984;-30
2022/10/23 05:10:30;;;;;;;19.35;13.52;;;10.00;99.90;;;;;;4825875;29;90164;-31
2022/10/23 05:12:55;;;;;;;16.52;14.55;;;10.00;99.90;;;;;;4825201;29;89535;-28
2022/10/23 05:15:21;;;;;;;16.55;14.32;;;10.00;99.90;;;;;;4826196;29;89403;-28
2022/10/23 05:17:51;;;;;;;17.25;13.20;;;10.00;99.90;;;;;;4826216;29;89883;-31
2022/10/23 05:20:21;;;;;;;21.75;16.17;;;10.00;99.90;;;;;;4825148;29;90320;-30
2022/10/23 05:22:50;;;;;;;17.00;15.25;;;10.00;99.90;;;;;;4825865;29;89646;-30
2022/10/23 05:25:15;;;;;;;;;;;10.00;99.90;;;;;;4826264;29;89602;-28
2022/10/23 05:27:41;;;;;;;20.13;15.40;;;10.00;99.90;;;;;;4827501;29;89183;-31
2022/10/23 05:30:07;;;;;;;22.65;16.05;;;9.90;99.90;;;;;;4825925;29;89214;-28
2022/10/23 05:32:34;;;;;;;18.05;15.43;;;9.90;99.90;;;;;;4823886;29;91173;-32
2022/10/23 05:35:05;;;;;;;17.73;14.05;;;9.90;99.90;;;;;;4825545;29;91522;-29
2022/10/23 05:37:31;;;;;;;21.48;14.63;;;9.90;99.90;;;;;;4825535;29;88440;-31
2022/10/23 05:39:57;;;;;;;19.13;15.65;;;9.90;99.90;;;;;;4825490;29;90160;-30
2022/10/23 05:42:22;;;;;;;16.27;14.57;;;9.80;99.90;;;;;;4825015;29;90112;-29
2022/10/23 05:44:48;;;;;;;18.02;16.02;;;9.80;99.90;;;;;;4825672;29;89145;-30
2022/10/23 05:47:13;;;;;;;17.15;15.18;;;9.80;99.90;;;;;;4825329;29;88720;-30
2022/10/23 05:49:39;;;;;;;23.40;16.77;;;9.80;99.90;;;;;;4825387;29;90587;-29
2022/10/23 05:52:04;;;;;;;27.05;17.80;;;9.80;99.90;;;;;;4825492;29;90224;-29
2022/10/23 05:54:30;;;;;;;20.65;15.82;;;9.80;99.90;;;;;;4825490;29;89398;-30
2022/10/23 05:56:56;;;;;;;27.77;17.70;;;9.80;99.90;;;;;;4824613;29;89228;-30
2022/10/23 05:59:21;;;;;;;18.45;16.75;;;9.90;99.90;;;;;;4825522;29;89522;-33
2022/10/23 06:01:47;;;;;;;21.60;16.88;;;9.80;99.90;;;;;;4824906;29;90604;-29
2022/10/23 06:04:13;;;;;;;18.65;13.82;;;9.80;99.90;;;;;;4825302;29;89989;-29
2022/10/23 06:06:38;;;;;;;26.20;15.93;;;9.80;99.90;;;;;;4825630;29;89484;-27
2022/10/23 06:09:04;;;;;;;20.20;16.08;;;9.90;99.90;;;;;;4807995;29;89783;-33
2022/10/23 06:11:30;;;;;;;22.05;16.90;;;9.90;99.90;;;;;;4824927;29;90161;-30
2022/10/23 06:13:55;;;;;;;27.80;18.08;;;9.90;99.90;;;;;;4825533;29;90225;-35
2022/10/23 06:16:26;;;;;;;19.95;17.60;;;9.90;99.90;;;;;;4825224;29;89832;-28
2022/10/23 06:18:52;;;;;;;24.52;17.02;;;9.90;99.90;;;;;;4824730;29;90123;-29
2022/10/23 06:21:18;;;;;;;21.40;18.77;;;9.90;99.90;;;;;;4824622;29;91101;-33
2022/10/23 06:23:45;;;;;;;23.73;17.60;;;9.90;99.90;;;;;;4824593;29;90166;-32
2022/10/23 06:26:13;;;;;;;17.98;15.73;;;9.90;99.90;;;;;;4825065;29;90028;-30
2022/10/23 06:28:39;;;;;;;21.80;16.70;;;9.90;99.90;;;;;;4824585;29;90295;-32
2022/10/23 06:31:06;;;;;;;17.67;15.70;;;9.90;99.90;;;;;;4824825;29;89020;-28
2022/10/23 06:33:32;;;;;;;19.95;17.67;;;9.90;99.90;;;;;;4824827;29;88971;-32
2022/10/23 06:35:58;;;;;;;21.90;17.17;;;9.90;99.90;;;;;;4823913;29;89765;-31
2022/10/23 06:38:24;;;;;;;25.60;18.40;;;9.90;99.90;;;;;;4825440;29;91003;-31
2022/10/23 06:40:53;;;;;;;20.17;18.08;;;10.00;99.90;;;;;;4824625;29;89760;-30
2022/10/23 06:43:19;;;;;;;20.77;15.80;;;10.00;99.90;;;;;;4824081;29;90452;-33
2022/10/23 06:45:44;;;;;;;22.60;19.50;;;10.00;99.90;;;;;;4807237;29;90297;-32
2022/10/23 06:48:10;;;;;;;27.75;17.10;;;10.00;99.90;;;;;;4824148;29;90453;-30
2022/10/23 06:50:36;;;;;;;19.58;17.42;;;10.00;99.90;;;;;;4824896;29;88730;-31
2022/10/23 06:53:04;;;;;;;20.70;15.40;;;10.10;99.90;;;;;;4826137;29;89503;-28
2022/10/23 06:55:30;;;;;;;16.48;14.50;;;10.10;99.90;;;;;;4828349;29;89565;-30
2022/10/23 06:57:56;;;;;;;20.02;16.02;;;10.10;99.90;;;;;;4826982;29;90384;-31
2022/10/23 07:00:22;;;;;;;20.20;15.43;;;10.10;99.90;;;;;;4825419;29;90244;-27
2022/10/23 07:02:48;;;;;;;24.67;16.77;;;10.10;99.90;;;;;;4827172;29;89832;-31
2022/10/23 07:05:14;;;;;;;19.80;15.88;;;10.10;99.90;;;;;;4828032;29;88274;-30
2022/10/23 07:07:40;;;;;;;24.52;18.42;;;10.20;99.90;;;;;;4827340;29;90225;-30
2022/10/23 07:10:06;;;;;;;17.02;14.70;;;10.20;99.90;;;;;;4814896;29;90618;-29
2022/10/23 07:12:31;;;;;;;19.33;17.25;;;10.20;99.90;;;;;;4826835;29;90173;-27
2022/10/23 07:14:57;;;;;;;16.45;14.05;;;10.20;99.90;;;;;;4826696;29;89675;-28
2022/10/23 07:17:22;;;;;;;17.23;15.55;;;10.30;99.90;;;;;;4826060;29;90248;-27
2022/10/23 07:19:48;;;;;;;18.38;16.00;;;10.30;99.90;;;;;;4826939;29;89609;-29
2022/10/23 07:22:13;;;;;;;27.65;16.30;;;10.30;99.90;;;;;;4814186;29;88402;-28
2022/10/23 07:24:39;;;;;;;21.77;17.20;;;10.40;99.90;;;;;;4827782;29;89944;-30
2022/10/23 07:27:05;;;;;;;22.77;15.07;;;10.40;99.90;;;;;;4827041;29;90326;-30
2022/10/23 07:29:31;;;;;;;18.58;16.13;;;10.40;99.90;;;;;;4827750;29;90092;-30
2022/10/23 07:31:59;;;;;;;19.25;16.42;;;10.40;99.90;;;;;;4826519;29;89986;-28
2022/10/23 07:34:25;;;;;;;16.58;13.95;;;10.50;99.90;;;;;;4824408;29;90101;-30
2022/10/23 07:36:53;;;;;;;23.42;17.33;;;10.50;99.90;;;;;;4827309;29;90200;-28
2022/10/23 07:39:19;;;;;;;23.35;15.52;;;10.50;99.90;;;;;;4827913;29;89283;-33
2022/10/23 07:41:45;;;;;;;21.13;14.63;;;10.50;99.90;;;;;;4817020;29;89719;-30
2022/10/23 07:44:10;;;;;;;21.35;16.10;;;10.60;99.90;;;;;;4821197;29;89927;-30
2022/10/23 07:46:36;;;;;;;25.05;15.05;;;10.70;99.90;;;;;;4825267;29;90130;-28
2022/10/23 07:49:01;;;;;;;24.88;17.13;;;10.70;99.90;;;;;;4825869;29;89609;-28
2022/10/23 07:51:27;;;;;;;20.65;15.00;;;10.70;99.90;;;;;;4826356;29;89415;-28
2022/10/23 07:53:52;;;;;;;18.20;16.33;;;10.80;99.90;;;;;;4818246;29;88167;-30
2022/10/23 07:56:25;;;;;;;16.52;14.20;;;10.80;99.90;;;;;;4823552;29;90906;-30
2022/10/23 07:58:52;;;;;;;24.98;15.38;;;10.90;99.90;;;;;;4823305;29;90312;-30
2022/10/23 08:01:29;;;;;;;23.95;16.88;;;10.80;99.90;;;;;;4822453;29;90370;-32
2022/10/23 08:03:54;;;;;;;16.55;13.35;;;10.90;99.90;;;;;;4823562;29;88839;-30
2022/10/23 08:06:20;;;;;;;25.38;15.02;;;10.90;99.90;;;;;;4823033;29;90165;-31
2022/10/23 08:08:45;;;;;;;18.50;14.68;;;11.00;99.90;;;;;;4824335;29;89821;-30
2022/10/23 08:11:13;;;;;;;23.13;13.48;;;11.10;99.90;;;;;;4824059;29;88993;-31
2022/10/23 08:13:39;;;;;;;19.67;16.95;;;11.10;99.90;;;;;;4812746;29;89446;-33
2022/10/23 08:16:05;;;;;;;28.08;14.88;;;11.20;99.90;;;;;;4824082;29;89991;-29
2022/10/23 08:18:31;;;;;;;18.33;13.60;;;11.30;99.90;;;;;;4823887;29;89649;-28
2022/10/23 08:21:00;;;;;;;16.83;13.70;;;11.30;99.90;;;;;;4823907;29;90164;-29
2022/10/23 08:23:26;;;;;;;16.10;11.93;;;11.40;99.90;;;;;;4824445;29;90821;-32
2022/10/23 08:25:57;;;;;;;14.75;12.23;;;11.50;99.90;;;;;;4823123;29;91563;-30
2022/10/23 08:28:23;;;;;;;21.42;13.57;;;11.50;99.90;;;;;;4824136;29;89972;-29
2022/10/23 08:30:49;;;;;;;16.80;13.23;;;11.70;99.90;;;;;;4823238;29;89721;-29
2022/10/23 08:33:14;;;;;;;19.92;12.40;;;11.70;99.90;;;;;;4824342;29;88781;-32
2022/10/23 08:35:40;;;;;;;12.57;11.38;;;11.80;99.90;;;;;;4822495;29;90804;-30
2022/10/23 08:38:05;;;;;;;19.45;11.68;;;11.90;99.90;;;;;;4822290;29;89499;-28
2022/10/23 08:40:32;;;;;;;15.38;11.60;;;12.00;99.90;;;;;;4823812;29;89785;-29
2022/10/23 08:43:04;;;;;;;20.80;12.32;;;12.00;99.90;;;;;;4823407;29;89312;-32
2022/10/23 08:45:35;;;;;;;13.70;11.50;;;12.10;99.90;;;;;;4823607;29;89255;-27
2022/10/23 08:48:14;;;;;;;19.45;12.13;;;12.10;99.90;;;;;;4823165;29;90399;-29
2022/10/23 08:50:44;;;;;;;12.73;9.65;;;12.20;99.90;;;;;;4823523;29;90556;-30
2022/10/23 08:53:21;;;;;;;15.68;11.15;;;12.30;99.90;;;;;;4824669;29;88751;-30
2022/10/23 08:56:00;;;;;;;13.63;11.43;;;12.40;99.90;;;;;;4823329;29;90367;-29
2022/10/23 08:58:38;;;;;;;10.15;8.88;;;12.40;99.90;;;;;;4823781;29;89661;-30
2022/10/23 09:01:31;;;;;;;11.30;9.45;;;12.60;99.90;;;;;;4824060;29;89637;-30
2022/10/23 09:03:56;;;;;;;12.52;9.80;;;12.60;99.90;;;;;;4812438;29;90207;-31
2022/10/23 09:06:34;;;;;;;19.55;11.95;;;12.70;99.90;;;;;;4823573;29;88827;-29
2022/10/23 09:09:38;;;;;;;13.40;10.10;;;12.80;99.90;;;;;;4823018;29;89871;-29
2022/10/23 09:12:06;;;;;;;13.82;11.95;;;12.80;99.90;;;;;;4823468;29;89444;-32
2022/10/23 09:14:47;;;;;;;16.23;9.82;;;12.90;99.90;;;;;;4822576;29;89767;-32
2022/10/23 09:17:22;;;;;;;12.25;9.35;;;13.00;99.90;;;;;;4824134;29;90832;-29
2022/10/23 09:19:54;;;;;;;12.98;9.68;;;13.10;99.90;;;;;;4823635;29;89402;-31
2022/10/23 09:22:20;;;;;;;12.63;9.50;;;13.20;99.90;;;;;;4824037;29;90171;-30
2022/10/23 09:24:45;;;;;;;12.68;10.32;;;13.20;99.90;;;;;;4823576;29;88416;-30
2022/10/23 09:27:16;;;;;;;12.20;9.18;;;13.20;99.90;;;;;;4822956;29;90783;-30
2022/10/23 09:29:55;;;;;;;10.50;9.00;;;13.40;99.90;;;;;;4823470;29;89845;-30
2022/10/23 09:32:35;;;;;;;12.20;10.02;;;13.40;99.90;;;;;;4823477;29;89514;-31
2022/10/23 09:35:02;;;;;;;12.05;9.13;;;13.50;99.90;;;;;;4810991;29;88446;-29
2022/10/23 09:37:31;;;;;;;9.13;8.25;;;13.50;99.90;;;;;;4823517;29;90995;-31
2022/10/23 09:40:28;;;;;;;14.98;10.48;;;13.50;99.90;;;;;;4822864;29;90940;-30
2022/10/23 09:42:59;;;;;;;14.07;8.63;;;13.60;99.90;;;;;;4822552;29;89277;-33
2022/10/23 09:45:29;;;;;;;11.02;9.10;;;13.60;99.90;;;;;;4823639;29;87818;-30
2022/10/23 09:48:17;;;;;;;12.45;9.23;;;13.70;99.90;;;;;;4823019;29;89928;-31
2022/10/23 09:50:50;;;;;;;;;;;13.80;99.90;;;;;;4823806;29;89870;-32
2022/10/23 09:53:25;;;;;;;12.82;9.15;;;13.80;99.90;;;;;;4824731;29;89960;-30
2022/10/23 09:55:53;;;;;;;13.35;9.77;;;13.80;99.90;;;;;;4823865;29;90091;-30
2022/10/23 09:58:21;;;;;;;17.25;10.73;;;13.90;99.90;;;;;;4824232;29;90388;-28
2022/10/23 10:00:47;;;;;;;22.45;13.50;;;14.00;99.90;;;;;;4822347;29;89641;-32
2022/10/23 10:03:21;;;;;;;13.02;10.50;;;14.00;99.90;;;;;;4822691;29;89813;-33
2022/10/23 10:05:54;;;;;;;13.30;9.45;;;14.10;99.90;;;;;;4821850;29;88906;-31
2022/10/23 10:08:23;;;;;;;11.65;9.35;;;14.20;99.90;;;;;;4823278;29;89841;-30
2022/10/23 10:11:26;;;;;;;12.52;9.20;;;14.30;99.90;;;;;;4822730;29;89843;-30
2022/10/23 10:14:05;;;;;;;11.05;7.55;;;14.30;99.90;;;;;;4822494;29;89490;-31
2022/10/23 10:16:36;;;;;;;17.65;11.18;;;14.50;99.90;;;;;;4823194;29;88235;-33
2022/10/23 10:19:04;;;;;;;10.95;7.93;;;14.50;99.90;;;;;;4822739;29;90431;-30
2022/10/23 10:21:41;;;;;;;16.02;9.45;;;14.50;99.90;;;;;;4823062;29;90865;-31
2022/10/23 10:24:10;;;;;;;9.15;7.40;;;14.60;99.90;;;;;;4823230;29;90174;-29
2022/10/23 10:26:54;;;;;;;14.10;9.43;;;14.70;99.90;;;;;;4806061;29;90018;-34
2022/10/23 10:29:40;;;;;;;10.18;8.00;;;14.70;99.90;;;;;;4826971;29;90771;-32
2022/10/23 10:32:24;;;;;;;8.93;7.03;;;14.80;99.90;;;;;;4825138;29;91346;-31
2022/10/23 10:35:20;;;;;;;8.18;7.32;;;14.90;99.90;;;;;;4826483;29;90162;-30
2022/10/23 10:38:22;;;;;;;15.65;8.88;;;14.90;99.90;;;;;;4826696;29;89432;-31
2022/10/23 10:40:59;;;;;;;14.13;7.28;;;15.00;99.90;;;;;;4825229;29;90375;-30
2022/10/23 10:43:54;;;;;;;8.35;6.88;;;15.10;99.90;;;;;;4825872;29;89704;-30
2022/10/23 10:46:52;;;;;;;10.90;7.13;;;15.10;99.90;;;;;;4826318;29;89516;-29
2022/10/23 10:49:34;;;;;;;8.82;6.30;;;15.10;99.90;;;;;;4827028;29;89143;-31
2022/10/23 10:52:40;;;;;;;8.88;6.10;;;15.20;99.90;;;;;;4824941;29;90372;-30
2022/10/23 10:55:32;;;;;;;6.82;6.25;;;15.30;99.90;;;;;;4803246;29;90158;-31
2022/10/23 10:58:04;;;;;;;10.38;6.78;;;15.40;99.90;;;;;;4825600;29;90242;-28
2022/10/23 11:00:32;;;;;;;7.03;5.78;;;15.40;99.90;;;;;;4826289;29;89875;-29
2022/10/23 11:03:08;;;;;;;10.23;5.90;;;15.40;99.90;;;;;;4824904;29;90464;-29
2022/10/23 11:05:39;;;;;;;9.32;6.22;;;15.40;99.90;;;;;;4825412;29;89424;-29
2022/10/23 11:08:21;;;;;;;7.20;6.00;;;15.50;99.90;;;;;;4820980;29;90070;-28
2022/10/23 11:10:54;;;;;;;10.20;6.05;;;15.40;99.90;;;;;;4822393;29;89915;-27
2022/10/23 11:13:36;;;;;;;7.00;5.75;;;15.50;99.90;;;;;;4821835;29;89997;-30
2022/10/23 11:16:08;;;;;;;10.35;5.70;;;15.50;99.90;;;;;;4825156;29;89734;-30
2022/10/23 11:18:36;;;;;;;10.38;6.88;;;15.50;99.90;;;;;;4816924;29;89766;-27
2022/10/23 11:21:27;;;;;;;11.83;6.60;;;15.50;99.90;;;;;;4820953;29;89472;-30
2022/10/23 11:24:22;;;;;;;5.75;4.85;;;15.60;99.90;;;;;;4810951;29;90098;-32
2022/10/23 11:27:04;;;;;;;6.00;5.35;;;15.60;99.90;;;;;;4821951;29;90551;-31
2022/10/23 11:29:41;;;;;;;10.27;5.50;;;15.50;99.90;;;;;;4826320;29;90056;-29
2022/10/23 11:32:47;;;;;;;7.77;6.93;;;15.50;99.90;;;;;;4816018;29;89964;-28
2022/10/23 11:35:31;;;;;;;14.25;5.85;;;15.40;99.90;;;;;;4821120;29;90596;-28
2022/10/23 11:38:19;;;;;;;7.60;6.25;;;15.40;99.90;;;;;;4824927;29;89846;-30
2022/10/23 11:40:54;;;;;;;7.73;6.97;;;15.40;99.90;;;;;;4816209;29;89752;-31
2022/10/23 11:43:32;;;;;;;10.65;7.95;;;15.50;99.90;;;;;;4815821;29;89746;-32
2022/10/23 11:46:09;;;;;;;9.88;6.68;;;15.50;99.90;;;;;;4817823;29;90385;-30
2022/10/23 11:48:38;;;;;;;10.45;6.30;;;15.50;99.90;;;;;;4825124;29;89726;-30
2022/10/23 11:51:04;;;;;;;12.60;7.82;;;15.50;99.90;;;;;;4824568;29;89442;-28
2022/10/23 11:53:30;;;;;;;10.95;6.60;;;15.50;99.90;;;;;;4825017;29;89195;-29
2022/10/23 11:56:13;;;;;;;6.10;5.18;;;15.50;99.90;;;;;;4824163;29;90271;-30
2022/10/23 11:58:51;;;;;;;12.65;5.72;;;15.60;99.90;;;;;;4825154;29;89593;-29
2022/10/23 12:01:40;;;;;;;10.77;5.32;;;15.60;99.90;;;;;;4825398;29;89588;-29
2022/10/23 12:04:19;;;;;;;7.15;6.38;;;15.60;99.90;;;;;;4824719;29;89742;-30
2022/10/23 12:07:00;;;;;;;7.93;6.00;;;15.60;99.90;;;;;;4824888;29;90437;-31
2022/10/23 12:09:40;;;;;;;6.30;5.70;;;15.80;99.90;;;;;;4823523;29;90487;-29
2022/10/23 12:12:08;;;;;;;15.77;6.25;;;15.70;99.90;;;;;;4824373;29;89904;-32
2022/10/23 12:14:38;;;;;;;;;;;15.80;99.90;;;;;;4825963;29;89456;-33
2022/10/23 12:17:22;;;;;;;13.13;7.38;;;15.80;99.90;;;;;;4825368;29;89718;-31
2022/10/23 12:19:52;;;;;;;7.55;5.43;;;15.80;99.90;;;;;;4824449;29;90635;-32
2022/10/23 12:22:19;;;;;;;12.45;6.38;;;15.90;99.90;;;;;;4823925;29;90644;-29
2022/10/23 12:25:14;;;;;;;5.55;4.97;;;15.90;99.90;;;;;;4823633;29;88098;-29
2022/10/23 12:27:51;;;;;;;5.65;5.15;;;16.00;99.90;;;;;;4823505;29;90615;-32
2022/10/23 12:30:32;;;;;;;7.68;5.60;;;16.00;99.90;;;;;;4824786;29;89511;-30
2022/10/23 12:33:19;;;;;;;9.15;5.40;;;16.00;99.90;;;;;;4823630;29;89550;-29
2022/10/23 12:36:03;;;;;;;8.23;6.35;;;16.10;99.90;;;;;;4824439;29;88642;-30
2022/10/23 12:38:29;;;;;;;8.88;6.25;;;16.10;99.90;;;;;;4824332;29;89721;-30
2022/10/23 12:41:10;;;;;;;11.20;6.15;;;16.10;99.90;;;;;;4823800;29;89745;-31
2022/10/23 12:43:37;;;;;;;10.23;6.18;;;16.00;99.90;;;;;;4824057;29;89876;-30
2022/10/23 12:46:27;;;;;;;6.95;6.35;;;16.10;99.90;;;;;;4823621;29;90279;-31
2022/10/23 12:48:55;;;;;;;6.97;5.35;;;16.10;99.90;;;;;;4823279;29;90499;-31
2022/10/23 12:51:31;;;;;;;6.07;5.53;;;16.10;99.90;;;;;;4822590;29;89671;-31
2022/10/23 12:53:58;;;;;;;7.78;5.75;;;16.20;99.90;;;;;;4824290;29;89660;-31